Time,TemperatureF,DewpointF,PressureIn,WindDirection,WindDirectionDegrees,WindSpeedMPH,WindSpeedGustMPH,Humidity,HourlyPrecipIn,Conditions,Clouds,dailyrainin,SoftwareType,DateUTC
2013-09-28 00:09:00,54.2,43.0,30.03,WSW,252,0.0,0.0,65,0.00,,,0.00,weatherlink.com 1.10,2013-09-28 07:09:00,
2013-09-28 00:24:00,54.0,42.0,30.03,WSW,252,0.0,0.0,65,0.00,,,0.00,weatherlink.com 1.10,2013-09-28 07:24:00,
2013-09-28 00:39:00,53.7,42.0,30.03,WSW,252,0.0,0.0,66,0.00,,,0.00,weatherlink.com 1.10,2013-09-28 07:39:00,
2013-09-28 00:54:00,53.2,42.0,30.03,NW,308,2.0,2.0,66,0.00,,,0.00,weatherlink.com 1.10,2013-09-28 07:54:00,
2013-09-28 01:09:00,52.4,41.0,30.03,NNE,17,0.0,1.0,65,0.00,,,0.00,weatherlink.com 1.10,2013-09-28 08:09:00,
2013-09-28 01:24:00,52.4,41.0,30.03,NNE,17,0.0,0.0,66,0.00,,,0.00,weatherlink.com 1.10,2013-09-28 08:24:00,
2013-09-28 01:39:00,52.9,40.0,30.03,NNE,16,0.0,0.0,63,0.00,,,0.00,weatherlink.com 1.10,2013-09-28 08:39:00,
2013-09-28 01:54:00,52.5,41.0,30.03,NNE,16,0.0,0.0,65,0.00,,,0.00,weatherlink.com 1.10,2013-09-28 08:54:00,
2013-09-28 02:09:00,52.2,40.0,30.03,NNE,16,0.0,0.0,64,0.00,,,0.00,weatherlink.com 1.10,2013-09-28 09:09:00,
2013-09-28 02:24:00,51.3,40.0,30.03,NNE,16,0.0,1.0,66,0.00,,,0.00,weatherlink.com 1.10,2013-09-28 09:24:00,
2013-09-28 02:39:00,51.0,42.0,30.03,NNE,16,0.0,1.0,70,0.00,,,0.00,weatherlink.com 1.10,2013-09-28 09:39:00,
2013-09-28 02:54:00,50.9,42.0,30.02,NNE,32,1.0,3.0,71,0.00,,,0.00,weatherlink.com 1.10,2013-09-28 09:54:00,
2013-09-28 03:09:00,50.3,41.0,30.02,NNE,32,0.0,2.0,70,0.00,,,0.00,weatherlink.com 1.10,2013-09-28 10:09:00,
2013-09-28 03:24:00,50.1,41.0,30.02,NNE,32,0.0,1.0,71,0.00,,,0.00,weatherlink.com 1.10,2013-09-28 10:24:00,
2013-09-28 03:39:00,50.0,41.0,30.02,NNE,32,1.0,2.0,71,0.00,,,0.00,weatherlink.com 1.10,2013-09-28 10:39:00,
2013-09-28 03:54:00,49.6,41.0,30.02,NNE,32,0.0,1.0,72,0.00,,,0.00,weatherlink.com 1.10,2013-09-28 10:54:00,
2013-09-28 04:09:00,49.1,41.0,30.02,NNE,32,0.0,1.0,74,0.00,,,0.00,weatherlink.com 1.10,2013-09-28 11:09:00,
2013-09-28 04:24:00,49.1,42.0,30.03,NNE,32,0.0,2.0,75,0.00,,,0.00,weatherlink.com 1.10,2013-09-28 11:24:00,
2013-09-28 04:39:00,49.1,42.0,30.02,NNE,32,0.0,1.0,75,0.00,,,0.00,weatherlink.com 1.10,2013-09-28 11:39:00,
2013-09-28 04:54:00,48.6,41.0,30.02,NNE,32,0.0,0.0,76,0.00,,,0.00,weatherlink.com 1.10,2013-09-28 11:54:00,
2013-09-28 05:09:00,48.3,42.0,30.03,WNW,302,1.0,2.0,79,0.00,,,0.00,weatherlink.com 1.10,2013-09-28 12:09:00,
2013-09-28 05:24:00,48.0,41.0,30.03,WNW,302,1.0,2.0,78,0.00,,,0.00,weatherlink.com 1.10,2013-09-28 12:24:00,
2013-09-28 05:39:00,47.8,42.0,30.03,WNW,302,1.0,2.0,79,0.00,,,0.00,weatherlink.com 1.10,2013-09-28 12:39:00,
2013-09-28 05:54:00,48.1,42.0,30.03,WNW,302,0.0,2.0,79,0.00,,,0.00,weatherlink.com 1.10,2013-09-28 12:54:00,
2013-09-28 06:09:00,47.7,42.0,30.04,NW,325,1.0,2.0,79,0.00,,,0.00,weatherlink.com 1.10,2013-09-28 13:09:00,
2013-09-28 06:24:00,47.5,42.0,30.04,NW,325,0.0,0.0,80,0.00,,,0.00,weatherlink.com 1.10,2013-09-28 13:24:00,
2013-09-28 06:39:00,47.2,42.0,30.04,NW,325,0.0,1.0,81,0.00,,,0.00,weatherlink.com 1.10,2013-09-28 13:39:00,
2013-09-28 06:54:00,47.1,42.0,30.04,NW,325,0.0,0.0,81,0.00,,,0.00,weatherlink.com 1.10,2013-09-28 13:54:00,
2013-09-28 07:09:00,46.9,41.0,30.05,NW,325,0.0,0.0,81,0.00,,,0.00,weatherlink.com 1.10,2013-09-28 14:09:00,
2013-09-28 07:24:00,47.0,41.0,30.05,NW,325,0.0,0.0,81,0.00,,,0.00,weatherlink.com 1.10,2013-09-28 14:24:00,
2013-09-28 07:39:00,48.1,42.0,30.05,NW,325,0.0,0.0,80,0.00,,,0.00,weatherlink.com 1.10,2013-09-28 14:39:00,
2013-09-28 07:54:00,49.3,42.0,30.06,WNW,302,1.0,1.0,77,0.00,,,0.00,weatherlink.com 1.10,2013-09-28 14:54:00,
2013-09-28 08:09:00,50.4,42.0,30.06,West,279,1.0,2.0,74,0.00,,,0.00,weatherlink.com 1.10,2013-09-28 15:09:00,
2013-09-28 08:24:00,52.0,43.0,30.06,West,264,0.0,3.0,72,0.00,,,0.00,weatherlink.com 1.10,2013-09-28 15:24:00,
2013-09-28 08:39:00,54.1,43.0,30.06,WSW,258,0.0,3.0,67,0.00,,,0.00,weatherlink.com 1.10,2013-09-28 15:39:00,
2013-09-28 08:55:00,56.5,43.0,30.06,WSW,248,2.0,3.0,62,0.00,,,0.00,weatherlink.com 1.10,2013-09-28 15:55:00,
2013-09-28 09:10:00,58.0,44.0,30.07,SW,226,1.0,3.0,61,0.00,,,0.00,weatherlink.com 1.10,2013-09-28 16:10:00,
2013-09-28 09:25:00,60.4,45.0,30.07,NW,309,0.0,1.0,57,0.00,,,0.00,weatherlink.com 1.10,2013-09-28 16:25:00,
2013-09-28 09:40:00,61.5,45.0,30.07,WSW,244,0.0,3.0,55,0.00,,,0.00,weatherlink.com 1.10,2013-09-28 16:40:00,
2013-09-28 09:55:00,63.4,46.0,30.07,WSW,242,0.0,3.0,54,0.00,,,0.00,weatherlink.com 1.10,2013-09-28 16:55:00,
2013-09-28 10:10:00,65.0,45.0,30.07,SW,223,2.0,3.0,49,0.00,,,0.00,weatherlink.com 1.10,2013-09-28 17:10:00,
2013-09-28 10:25:00,67.1,44.0,30.07,West,259,3.0,3.0,44,0.00,,,0.00,weatherlink.com 1.10,2013-09-28 17:25:00,
2013-09-28 10:40:00,68.4,42.0,30.07,NE,51,1.0,3.0,39,0.00,,,0.00,weatherlink.com 1.10,2013-09-28 17:40:00,
2013-09-28 11:10:00,71.7,43.0,30.06,East,88,2.0,4.0,35,0.00,,,0.00,weatherlink.com 1.10,2013-09-28 18:10:00,
2013-09-28 11:25:00,71.7,43.0,30.06,SE,127,4.0,4.0,35,0.00,,,0.00,weatherlink.com 1.10,2013-09-28 18:25:00,
2013-09-28 11:40:00,72.2,41.0,30.06,SSE,150,2.0,5.0,33,0.00,,,0.00,weatherlink.com 1.10,2013-09-28 18:40:00,
2013-09-28 11:56:00,73.4,41.0,30.05,SSE,152,4.0,6.0,31,0.00,,,0.00,weatherlink.com 1.10,2013-09-28 18:56:00,
2013-09-28 12:10:00,74.4,38.0,30.05,SSE,162,6.0,6.0,27,0.00,,,0.00,weatherlink.com 1.10,2013-09-28 19:10:00,
2013-09-28 12:25:00,75.5,37.0,30.04,South,170,4.0,11.0,25,0.00,,,0.00,weatherlink.com 1.10,2013-09-28 19:25:00,
2013-09-28 12:40:00,76.4,37.0,30.04,SW,225,5.0,8.0,24,0.00,,,0.00,weatherlink.com 1.10,2013-09-28 19:40:00,
2013-09-28 12:55:00,76.7,35.0,30.04,SE,142,4.0,9.0,22,0.00,,,0.00,weatherlink.com 1.10,2013-09-28 19:55:00,
2013-09-28 13:10:00,77.0,35.0,30.03,ENE,67,3.0,11.0,22,0.00,,,0.00,weatherlink.com 1.10,2013-09-28 20:10:00,
2013-09-28 13:25:00,77.7,38.0,30.02,SW,216,4.0,9.0,24,0.00,,,0.00,weatherlink.com 1.10,2013-09-28 20:25:00,
2013-09-28 13:41:00,78.6,38.0,30.02,SSE,153,3.0,9.0,23,0.00,,,0.00,weatherlink.com 1.10,2013-09-28 20:41:00,
2013-09-28 13:56:00,79.2,38.0,30.01,SSE,159,9.0,10.0,23,0.00,,,0.00,weatherlink.com 1.10,2013-09-28 20:56:00,
2013-09-28 14:11:00,79.7,36.0,30.00,ESE,105,1.0,11.0,21,0.00,,,0.00,weatherlink.com 1.10,2013-09-28 21:11:00,
2013-09-28 14:26:00,80.1,36.0,30.00,South,169,4.0,13.0,20,0.00,,,0.00,weatherlink.com 1.10,2013-09-28 21:26:00,
2013-09-28 14:41:00,79.6,35.0,30.00,South,186,7.0,15.0,20,0.00,,,0.00,weatherlink.com 1.10,2013-09-28 21:41:00,
2013-09-28 14:56:00,79.5,32.0,30.00,ESE,121,8.0,15.0,18,0.00,,,0.00,weatherlink.com 1.10,2013-09-28 21:56:00,
2013-09-28 15:11:00,79.8,30.0,30.00,ESE,110,9.0,14.0,16,0.00,,,0.00,weatherlink.com 1.10,2013-09-28 22:11:00,
2013-09-28 15:26:00,79.1,31.0,29.99,SE,124,8.0,14.0,17,0.00,,,0.00,weatherlink.com 1.10,2013-09-28 22:26:00,
2013-09-28 15:41:00,79.7,31.0,29.99,SSE,156,7.0,14.0,17,0.00,,,0.00,weatherlink.com 1.10,2013-09-28 22:41:00,
2013-09-28 15:56:00,79.4,28.0,29.98,ESE,109,3.0,13.0,15,0.00,,,0.00,weatherlink.com 1.10,2013-09-28 22:56:00,
2013-09-28 16:11:00,79.3,29.0,29.98,SE,124,5.0,10.0,16,0.00,,,0.00,weatherlink.com 1.10,2013-09-28 23:11:00,
2013-09-28 16:26:00,79.4,36.0,29.97,SSE,156,5.0,11.0,21,0.00,,,0.00,weatherlink.com 1.10,2013-09-28 23:26:00,
2013-09-28 16:41:00,78.9,35.0,29.98,SW,216,8.0,10.0,20,0.00,,,0.00,weatherlink.com 1.10,2013-09-28 23:41:00,
2013-09-28 16:56:00,79.2,36.0,29.98,SE,131,4.0,8.0,21,0.00,,,0.00,weatherlink.com 1.10,2013-09-28 23:56:00,
2013-09-28 17:11:00,78.7,41.0,29.98,SE,138,7.0,8.0,26,0.00,,,0.00,weatherlink.com 1.10,2013-09-29 00:11:00,
2013-09-28 17:26:00,77.5,40.0,29.97,SSE,152,3.0,11.0,26,0.00,,,0.00,weatherlink.com 1.10,2013-09-29 00:26:00,
2013-09-28 17:41:00,76.4,41.0,29.97,SSE,155,4.0,11.0,28,0.00,,,0.00,weatherlink.com 1.10,2013-09-29 00:41:00,
2013-09-28 17:56:00,74.8,43.0,29.98,South,173,5.0,10.0,32,0.00,,,0.00,weatherlink.com 1.10,2013-09-29 00:56:00,
2013-09-28 18:11:00,73.9,47.0,29.98,East,91,1.0,8.0,38,0.00,,,0.00,weatherlink.com 1.10,2013-09-29 01:11:00,
2013-09-28 18:26:00,71.6,48.0,29.98,East,82,5.0,12.0,43,0.00,,,0.00,weatherlink.com 1.10,2013-09-29 01:26:00,
2013-09-28 18:41:00,70.2,51.0,29.98,ESE,117,7.0,10.0,50,0.00,,,0.00,weatherlink.com 1.10,2013-09-29 01:41:00,
2013-09-28 18:56:00,69.4,52.0,29.99,ESE,109,3.0,7.0,54,0.00,,,0.00,weatherlink.com 1.10,2013-09-29 01:56:00,
2013-09-28 19:11:00,68.2,53.0,30.00,East,88,5.0,8.0,59,0.00,,,0.00,weatherlink.com 1.10,2013-09-29 02:11:00,
2013-09-28 19:26:00,67.0,53.0,30.01,ESE,113,2.0,9.0,62,0.00,,,0.00,weatherlink.com 1.10,2013-09-29 02:26:00,
2013-09-28 19:41:00,66.5,53.0,30.01,East,97,6.0,7.0,63,0.00,,,0.00,weatherlink.com 1.10,2013-09-29 02:41:00,
2013-09-28 19:56:00,66.1,53.0,30.02,East,89,7.0,7.0,64,0.00,,,0.00,weatherlink.com 1.10,2013-09-29 02:56:00,
2013-09-28 20:11:00,65.6,54.0,30.03,SE,132,3.0,7.0,67,0.00,,,0.00,weatherlink.com 1.10,2013-09-29 03:11:00,
2013-09-28 20:26:00,64.9,54.0,30.02,East,101,3.0,8.0,68,0.00,,,0.00,weatherlink.com 1.10,2013-09-29 03:26:00,
2013-09-28 20:41:00,63.9,55.0,30.02,ESE,102,2.0,9.0,72,0.00,,,0.00,weatherlink.com 1.10,2013-09-29 03:41:00,
2013-09-28 20:56:00,63.2,55.0,30.02,ESE,105,4.0,8.0,74,0.00,,,0.00,weatherlink.com 1.10,2013-09-29 03:56:00,
2013-09-28 21:11:00,62.8,55.0,30.02,East,82,1.0,9.0,75,0.00,,,0.00,weatherlink.com 1.10,2013-09-29 04:11:00,
2013-09-28 21:26:00,62.3,55.0,30.04,East,86,4.0,7.0,77,0.00,,,0.00,weatherlink.com 1.10,2013-09-29 04:26:00,
2013-09-28 21:41:00,61.7,55.0,30.04,ESE,115,3.0,8.0,78,0.00,,,0.00,weatherlink.com 1.10,2013-09-29 04:41:00,
2013-09-28 21:56:00,61.2,55.0,30.04,East,84,2.0,7.0,79,0.00,,,0.00,weatherlink.com 1.10,2013-09-29 04:56:00,
2013-09-28 22:11:00,60.8,55.0,30.05,East,86,3.0,4.0,80,0.00,,,0.00,weatherlink.com 1.10,2013-09-29 05:11:00,
2013-09-28 22:26:00,60.5,55.0,30.05,ENE,73,2.0,4.0,81,0.00,,,0.00,weatherlink.com 1.10,2013-09-29 05:26:00,
2013-09-28 22:41:00,60.2,55.0,30.05,ENE,76,1.0,2.0,82,0.00,,,0.00,weatherlink.com 1.10,2013-09-29 05:41:00,
2013-09-28 22:56:00,59.6,54.0,30.03,ENE,67,1.0,4.0,83,0.00,,,0.00,weatherlink.com 1.10,2013-09-29 05:56:00,
2013-09-28 23:11:00,59.1,54.0,30.05,ENE,61,1.0,2.0,84,0.00,,,0.00,weatherlink.com 1.10,2013-09-29 06:11:00,
2013-09-28 23:26:00,59.2,54.0,30.05,NE,37,1.0,3.0,84,0.00,,,0.00,weatherlink.com 1.10,2013-09-29 06:26:00,
2013-09-28 23:41:00,58.8,54.0,30.05,NE,37,0.0,2.0,84,0.00,,,0.00,weatherlink.com 1.10,2013-09-29 06:41:00,
2013-09-28 23:56:00,57.8,53.0,30.06,NE,37,0.0,0.0,85,0.00,,,0.00,weatherlink.com 1.10,2013-09-29 06:56:00,